createdAt,value
2022-10-17T00:00:02.522Z,10.90
2022-10-17T00:02:36.509Z,10.94
2022-10-17T00:05:08.634Z,10.97
2022-10-17T00:07:39.958Z,10.99
2022-10-17T00:10:11.692Z,11.00
2022-10-17T00:12:43.346Z,11.01
2022-10-17T00:15:19.392Z,11.03
2022-10-17T00:17:50.964Z,11.05
2022-10-17T00:20:22.448Z,11.07
2022-10-17T00:22:53.781Z,11.10
2022-10-17T00:25:25.373Z,11.14
2022-10-17T00:27:56.767Z,11.17
2022-10-17T00:30:28.130Z,11.17
2022-10-17T00:32:59.580Z,11.19
2022-10-17T00:35:30.943Z,11.21
2022-10-17T00:38:02.306Z,11.23
2022-10-17T00:40:33.611Z,11.22
2022-10-17T00:43:05.017Z,11.27
2022-10-17T00:45:36.424Z,11.32
2022-10-17T00:48:11.112Z,11.35
2022-10-17T00:50:45.902Z,11.35
2022-10-17T00:53:18.193Z,11.35
2022-10-17T00:55:52.883Z,11.36
2022-10-17T00:58:24.714Z,11.37
2022-10-17T01:00:56.159Z,11.40
2022-10-17T01:03:27.749Z,11.41
2022-10-17T01:05:59.841Z,11.42
2022-10-17T01:08:31.366Z,11.43
2022-10-17T01:11:13.254Z,11.46
2022-10-17T01:13:50.994Z,11.49
2022-10-17T01:16:33.766Z,11.50
2022-10-17T01:19:30.720Z,11.52
2022-10-17T01:22:08.842Z,11.53
2022-10-17T01:24:57.565Z,11.55
2022-10-17T01:28:01.494Z,11.59
2022-10-17T01:31:05.804Z,11.64
2022-10-17T01:33:46.972Z,11.64
2022-10-17T01:36:30.338Z,11.61
2022-10-17T01:39:12.204Z,11.57
2022-10-17T01:41:48.232Z,11.55
2022-10-17T01:44:24.805Z,11.56
2022-10-17T01:47:02.805Z,11.55
2022-10-17T01:49:37.254Z,11.57
2022-10-17T01:52:13.952Z,11.61
2022-10-17T01:54:49.579Z,11.65
2022-10-17T01:57:27.435Z,11.65
2022-10-17T01:59:59.864Z,11.63
2022-10-17T02:02:32.553Z,11.60
2022-10-17T02:05:05.492Z,11.56
2022-10-17T02:07:36.718Z,11.53
2022-10-17T02:10:18.153Z,11.51
2022-10-17T02:12:56.323Z,11.52
2022-10-17T02:15:56.561Z,11.53
2022-10-17T02:18:42.950Z,11.53
2022-10-17T02:21:21.442Z,11.54
2022-10-17T02:23:57.442Z,11.54
2022-10-17T02:26:35.210Z,11.57
2022-10-17T02:29:11.405Z,11.58
2022-10-17T02:31:47.335Z,11.59
2022-10-17T02:34:23.116Z,11.58
2022-10-17T02:36:57.736Z,11.58
2022-10-17T02:39:32.157Z,11.60
2022-10-17T02:42:08.746Z,11.60
2022-10-17T02:44:44.939Z,11.60
2022-10-17T02:47:23.515Z,11.61
2022-10-17T02:49:57.263Z,11.64
2022-10-17T02:52:33.541Z,11.66
2022-10-17T02:55:12.398Z,11.71
2022-10-17T02:57:47.617Z,11.75
2022-10-17T03:00:20.523Z,11.77
2022-10-17T03:02:54.091Z,11.79
2022-10-17T03:05:27.631Z,11.80
2022-10-17T03:07:59.793Z,11.81
2022-10-17T03:10:31.164Z,11.82
2022-10-17T03:13:02.380Z,11.83
2022-10-17T03:15:39.418Z,11.82
2022-10-17T03:18:11.184Z,11.80
2022-10-17T03:20:42.674Z,11.76
2022-10-17T03:23:14.183Z,11.74
2022-10-17T03:25:45.601Z,11.71
2022-10-17T03:28:18.414Z,11.68
2022-10-17T03:30:50.022Z,11.66
2022-10-17T03:33:21.398Z,11.65
2022-10-17T03:35:52.749Z,11.61
2022-10-17T03:38:24.147Z,11.59
2022-10-17T03:40:59.536Z,11.55
2022-10-17T03:43:31.731Z,11.50
2022-10-17T03:46:03.927Z,11.45
2022-10-17T03:48:36.024Z,11.40
2022-10-17T03:51:10.454Z,11.37
2022-10-17T03:53:46.530Z,11.36
2022-10-17T03:56:20.035Z,11.33
2022-10-17T03:58:58.600Z,11.33
2022-10-17T04:01:31.387Z,11.31
2022-10-17T04:04:03.822Z,11.31
2022-10-17T04:06:37.457Z,11.31
2022-10-17T04:09:09.462Z,11.31
2022-10-17T04:11:46.706Z,11.31
2022-10-17T04:14:18.245Z,11.29
2022-10-17T04:16:50.345Z,11.26
2022-10-17T04:19:26.067Z,11.24
2022-10-17T04:21:57.426Z,11.22
2022-10-17T04:24:29.068Z,11.21
2022-10-17T04:27:10.285Z,11.19
2022-10-17T04:29:45.445Z,11.18
2022-10-17T04:32:27.245Z,11.15
2022-10-17T04:35:13.506Z,11.11
2022-10-17T04:37:48.998Z,11.10
2022-10-17T04:40:22.481Z,11.08
2022-10-17T04:42:55.422Z,11.05
2022-10-17T04:45:31.320Z,11.02
2022-10-17T04:48:06.931Z,11.01
2022-10-17T04:50:39.042Z,10.99
2022-10-17T04:53:34.158Z,10.99
2022-10-17T04:56:11.790Z,10.97
2022-10-17T04:58:44.008Z,10.95
2022-10-17T05:01:17.817Z,10.95
2022-10-17T05:03:51.865Z,10.96
2022-10-17T05:06:26.036Z,10.96
2022-10-17T05:09:12.028Z,10.97
2022-10-17T05:11:45.014Z,10.97
2022-10-17T05:14:18.505Z,10.95
2022-10-17T05:16:50.067Z,10.95
2022-10-17T05:19:21.532Z,10.95
2022-10-17T05:21:54.814Z,10.95
2022-10-17T05:24:26.292Z,10.95
2022-10-17T05:26:58.232Z,10.94
2022-10-17T05:29:29.833Z,10.93
2022-10-17T05:32:08.383Z,10.92
2022-10-17T05:34:40.002Z,10.93
2022-10-17T05:37:11.294Z,10.92
2022-10-17T05:39:43.954Z,10.94
2022-10-17T05:42:17.950Z,10.94
2022-10-17T05:44:50.871Z,10.93
2022-10-17T05:47:23.431Z,10.92
2022-10-17T05:49:54.681Z,10.91
2022-10-17T05:52:34.194Z,10.90
2022-10-17T05:55:12.330Z,10.90
2022-10-17T05:57:43.988Z,10.89
2022-10-17T06:00:18.840Z,10.89
2022-10-17T06:02:54.767Z,10.90
2022-10-17T06:05:27.667Z,10.89
2022-10-17T06:08:02.123Z,10.90
2022-10-17T06:10:36.981Z,10.92
2022-10-17T06:13:08.409Z,10.92
2022-10-17T06:15:40.111Z,10.91
2022-10-17T06:18:13.196Z,10.91
2022-10-17T06:20:46.148Z,10.92
2022-10-17T06:23:20.177Z,10.92
2022-10-17T06:26:03.598Z,10.92
2022-10-17T06:28:36.759Z,10.92
2022-10-17T06:31:13.036Z,10.89
2022-10-17T06:33:45.438Z,10.88
2022-10-17T06:36:17.877Z,10.87
2022-10-17T06:38:49.765Z,10.87
2022-10-17T06:41:26.637Z,10.88
2022-10-17T06:43:58.683Z,10.91
2022-10-17T06:47:02.591Z,10.91
2022-10-17T06:49:34.478Z,10.90
2022-10-17T06:52:23.467Z,10.90
2022-10-17T06:55:16.930Z,10.91
2022-10-17T06:58:10.333Z,10.90
2022-10-17T07:00:47.734Z,10.89
2022-10-17T07:03:18.989Z,10.88
2022-10-17T07:05:56.284Z,10.87
2022-10-17T07:08:28.077Z,10.86
2022-10-17T07:11:00.290Z,10.85
2022-10-17T07:13:34.427Z,10.84
2022-10-17T07:16:08.646Z,10.85
2022-10-17T07:18:40.970Z,10.86
2022-10-17T07:21:12.645Z,10.89
2022-10-17T07:23:44.813Z,10.93
2022-10-17T07:26:18.531Z,10.96
2022-10-17T07:28:55.285Z,10.99
2022-10-17T07:31:34.646Z,11.04
2022-10-17T07:34:06.238Z,11.07
2022-10-17T07:36:37.522Z,11.10
2022-10-17T07:39:10.224Z,11.13
2022-10-17T07:41:42.371Z,11.16
2022-10-17T07:44:15.501Z,11.20
2022-10-17T07:46:50.420Z,11.24
2022-10-17T07:49:22.620Z,11.27
2022-10-17T07:51:53.843Z,11.31
2022-10-17T07:54:25.743Z,11.34
2022-10-17T07:56:57.378Z,11.37
2022-10-17T07:59:28.583Z,11.39
2022-10-17T08:01:59.850Z,11.42
2022-10-17T08:04:31.483Z,11.44
2022-10-17T08:07:18.423Z,11.47
2022-10-17T08:09:52.393Z,11.52
2022-10-17T08:12:24.470Z,11.56
2022-10-17T08:14:55.924Z,11.60
2022-10-17T08:17:27.634Z,11.63
2022-10-17T08:19:58.943Z,11.65
2022-10-17T08:22:30.896Z,11.68
2022-10-17T08:25:03.141Z,11.72
2022-10-17T08:27:35.996Z,11.76
2022-10-17T08:30:08.593Z,11.80
2022-10-17T08:32:40.382Z,11.87
2022-10-17T08:35:12.560Z,11.95
2022-10-17T08:37:44.571Z,12.03
2022-10-17T08:40:22.666Z,12.18
2022-10-17T08:43:09.656Z,12.62
2022-10-17T08:45:47.523Z,14.05
2022-10-17T08:48:24.724Z,15.67
2022-10-17T08:50:58.207Z,16.48
2022-10-17T08:53:35.057Z,17.37
2022-10-17T08:56:19.838Z,17.60
2022-10-17T08:58:59.555Z,17.28
2022-10-17T09:01:38.868Z,16.63
2022-10-17T09:04:39.278Z,16.16
2022-10-17T09:07:18.321Z,15.61
2022-10-17T09:09:56.949Z,15.19
2022-10-17T09:12:38.950Z,15.03
2022-10-17T09:15:39.188Z,14.94
2022-10-17T09:18:12.822Z,14.76
2022-10-17T09:20:51.875Z,14.41
2022-10-17T09:23:27.420Z,14.06
2022-10-17T09:26:12.349Z,13.85
2022-10-17T09:28:45.921Z,13.63
2022-10-17T09:31:22.008Z,13.48
2022-10-17T09:33:57.279Z,13.35
2022-10-17T09:36:34.196Z,13.28
2022-10-17T09:39:13.470Z,13.30
2022-10-17T09:41:49.661Z,13.52
2022-10-17T09:44:23.480Z,13.90
2022-10-17T09:47:14.290Z,14.08
2022-10-17T09:49:47.621Z,14.22
2022-10-17T09:52:22.794Z,14.37
2022-10-17T09:54:57.588Z,14.36
2022-10-17T09:57:28.981Z,14.26
2022-10-17T10:00:03.474Z,14.25
2022-10-17T10:02:44.775Z,14.23
2022-10-17T10:05:21.724Z,14.25
2022-10-17T10:08:06.685Z,14.38
2022-10-17T10:10:37.951Z,14.43
2022-10-17T10:13:20.357Z,14.48
2022-10-17T10:15:52.768Z,14.67
2022-10-17T10:18:36.627Z,14.96
2022-10-17T10:21:12.229Z,15.14
2022-10-17T10:23:45.334Z,15.32
2022-10-17T10:26:27.791Z,15.26
2022-10-17T10:29:02.334Z,15.18
2022-10-17T10:31:36.520Z,14.98
2022-10-17T10:34:20.546Z,14.69
2022-10-17T10:37:17.679Z,14.57
2022-10-17T10:39:51.999Z,14.65
2022-10-17T10:42:27.925Z,14.91
2022-10-17T10:45:04.068Z,15.42
2022-10-17T10:47:35.696Z,16.67
2022-10-17T10:50:29.159Z,18.00
2022-10-17T10:53:20.127Z,19.63
2022-10-17T10:55:55.663Z,20.49
2022-10-17T10:58:38.919Z,20.99
2022-10-17T11:01:21.775Z,21.60
2022-10-17T11:04:14.187Z,21.62
2022-10-17T11:06:48.978Z,21.80
2022-10-17T11:09:33.867Z,22.55
2022-10-17T11:12:12.328Z,23.43
2022-10-17T11:14:50.966Z,23.01
2022-10-17T11:17:34.048Z,23.64
2022-10-17T11:20:16.317Z,24.20
2022-10-17T11:22:50.796Z,24.41
2022-10-17T11:25:33.424Z,24.91
2022-10-17T11:28:06.253Z,25.52
2022-10-17T11:33:57.725Z,27.63
2022-10-17T11:36:29.805Z,28.86
2022-10-17T11:39:02.550Z,29.50
2022-10-17T11:41:38.848Z,29.68
2022-10-17T11:44:23.604Z,29.85
2022-10-17T11:46:57.066Z,29.81
2022-10-17T11:49:32.046Z,30.06
2022-10-17T11:52:37.428Z,30.39
2022-10-17T11:55:14.134Z,30.62
2022-10-17T11:57:55.635Z,30.89
2022-10-17T12:00:40.796Z,31.11
2022-10-17T12:03:29.853Z,31.12
2022-10-17T12:06:04.156Z,30.99
2022-10-17T12:08:39.602Z,31.05
2022-10-17T12:11:23.515Z,31.62
2022-10-17T12:13:55.720Z,31.43
2022-10-17T12:16:50.881Z,31.35
2022-10-17T12:19:34.362Z,31.57
2022-10-17T12:22:19.848Z,31.47
2022-10-17T12:24:57.542Z,31.23
2022-10-17T12:27:38.119Z,30.98
2022-10-17T12:30:25.996Z,30.89
2022-10-17T12:33:06.487Z,30.70
2022-10-17T12:35:38.158Z,30.77
2022-10-17T12:38:24.938Z,30.96
2022-10-17T12:41:01.323Z,31.01
2022-10-17T12:43:48.567Z,31.04
2022-10-17T12:46:55.460Z,30.76
2022-10-17T12:49:54.372Z,30.34
2022-10-17T12:52:53.847Z,30.39
2022-10-17T12:55:25.795Z,30.50
2022-10-17T12:57:59.596Z,30.13
2022-10-17T13:00:35.951Z,29.69
2022-10-17T13:03:13.070Z,29.69
2022-10-17T13:05:45.855Z,29.85
2022-10-17T13:08:19.510Z,29.65
2022-10-17T13:10:52.432Z,29.43
2022-10-17T13:13:25.475Z,29.25
2022-10-17T13:15:55.383Z,29.08
2022-10-17T13:18:27.223Z,29.03
2022-10-17T13:20:58.605Z,29.24
2022-10-17T13:23:31.596Z,29.19
2022-10-17T13:26:17.169Z,29.07
2022-10-17T13:28:46.119Z,29.14
2022-10-17T13:31:30.776Z,29.10
2022-10-17T13:34:01.836Z,28.85
2022-10-17T13:36:32.774Z,28.63
2022-10-17T13:39:07.627Z,28.32
2022-10-17T13:41:38.238Z,28.06
2022-10-17T13:44:13.908Z,28.04
2022-10-17T13:46:43.009Z,27.99
2022-10-17T13:49:25.740Z,27.93
2022-10-17T13:51:58.296Z,27.73
2022-10-17T13:54:37.430Z,27.43
2022-10-17T13:57:16.643Z,27.33
2022-10-17T13:59:47.170Z,27.17
2022-10-17T14:02:19.253Z,26.89
2022-10-17T14:05:15.658Z,26.54
2022-10-17T14:08:09.547Z,26.34
2022-10-17T14:10:32.715Z,26.26
2022-10-17T14:13:03.752Z,26.01
2022-10-17T14:15:34.707Z,25.77
2022-10-17T14:18:07.777Z,25.52
2022-10-17T14:23:34.103Z,25.10
2022-10-17T14:26:11.924Z,24.67
2022-10-17T14:28:41.843Z,24.25
2022-10-17T14:31:22.076Z,23.97
2022-10-17T14:33:51.994Z,23.71
2022-10-17T14:36:29.426Z,23.44
2022-10-17T14:38:58.796Z,23.19
2022-10-17T14:41:42.557Z,22.99
2022-10-17T14:44:20.709Z,22.66
2022-10-17T14:46:52.785Z,22.35
2022-10-17T14:49:27.494Z,22.06
2022-10-17T14:52:30.676Z,21.80
2022-10-17T14:55:12.551Z,21.52
2022-10-17T14:57:45.483Z,21.32
2022-10-17T15:00:18.675Z,21.20
2022-10-17T15:02:48.286Z,21.08
2022-10-17T15:05:17.180Z,20.90
2022-10-17T15:07:45.901Z,20.72
2022-10-17T15:10:34.977Z,20.57
2022-10-17T15:13:26.625Z,20.41
2022-10-17T15:15:53.250Z,20.28
2022-10-17T15:18:21.785Z,20.07
2022-10-17T15:20:56.272Z,19.77
2022-10-17T15:23:35.185Z,19.46
2022-10-17T15:26:03.702Z,19.28
2022-10-17T15:28:32.325Z,19.18
2022-10-17T15:31:01.183Z,19.12
2022-10-17T15:33:29.654Z,18.96
2022-10-17T15:38:31.600Z,18.57
2022-10-17T15:41:00.128Z,18.34
2022-10-17T15:43:28.683Z,18.20
2022-10-17T15:45:57.189Z,18.00
2022-10-17T15:48:31.046Z,17.76
2022-10-17T15:51:00.276Z,17.49
2022-10-17T15:53:28.771Z,17.20
2022-10-17T15:55:58.063Z,16.91
2022-10-17T15:58:28.769Z,16.72
2022-10-17T16:00:57.287Z,16.57
2022-10-17T16:03:27.681Z,16.42
2022-10-17T16:05:56.207Z,16.27
2022-10-17T16:08:25.392Z,16.15
2022-10-17T16:10:54.042Z,16.04
2022-10-17T16:13:24.864Z,15.94
2022-10-17T16:15:53.438Z,15.87
2022-10-17T16:18:21.999Z,15.80
2022-10-17T16:20:50.698Z,15.75
2022-10-17T16:23:19.254Z,15.66
2022-10-17T16:25:47.880Z,15.59
2022-10-17T16:28:16.384Z,15.56
2022-10-17T16:30:45.655Z,15.52
2022-10-17T16:33:14.471Z,15.49
2022-10-17T16:35:45.138Z,15.44
2022-10-17T16:38:13.649Z,15.39
2022-10-17T16:40:42.362Z,15.34
2022-10-17T16:43:12.604Z,15.27
2022-10-17T16:45:40.290Z,15.19
2022-10-17T16:48:10.479Z,15.11
2022-10-17T16:50:40.822Z,15.03
2022-10-17T16:53:09.962Z,14.96
2022-10-17T16:55:38.741Z,14.89
2022-10-17T16:58:09.798Z,14.81
2022-10-17T17:00:39.791Z,14.71
2022-10-17T17:03:08.555Z,14.60
2022-10-17T17:05:37.070Z,14.50
2022-10-17T17:08:09.090Z,14.41
2022-10-17T17:10:45.911Z,14.29
2022-10-17T17:13:14.432Z,14.19
2022-10-17T17:15:43.040Z,14.10
2022-10-17T17:18:13.602Z,14.02
2022-10-17T17:20:42.418Z,13.92
2022-10-17T17:23:15.112Z,13.84
2022-10-17T17:25:44.971Z,13.75
2022-10-17T17:28:13.647Z,13.67
2022-10-17T17:30:42.159Z,13.59
2022-10-17T17:33:11.267Z,13.51
2022-10-17T17:35:40.572Z,13.44
2022-10-17T17:38:09.156Z,13.36
2022-10-17T17:40:48.053Z,13.29
2022-10-17T17:43:19.456Z,13.22
2022-10-17T17:45:48.518Z,13.15
2022-10-17T17:48:17.371Z,13.09
2022-10-17T17:50:46.511Z,13.03
2022-10-17T17:53:16.878Z,12.96
2022-10-17T17:55:45.056Z,12.90
2022-10-17T17:58:14.003Z,12.84
2022-10-17T18:00:42.878Z,12.78
2022-10-17T18:03:11.673Z,12.73
2022-10-17T18:05:41.695Z,12.69
2022-10-17T18:08:10.230Z,12.64
2022-10-17T18:10:38.771Z,12.60
2022-10-17T18:13:07.366Z,12.55
2022-10-17T18:15:35.878Z,12.51
2022-10-17T18:18:04.429Z,12.46
2022-10-17T18:20:32.944Z,12.43
2022-10-17T18:23:04.153Z,12.38
2022-10-17T18:25:33.127Z,12.33
2022-10-17T18:28:01.830Z,12.28
2022-10-17T18:30:33.746Z,12.24
2022-10-17T18:33:03.247Z,12.18
2022-10-17T18:35:36.849Z,12.14
2022-10-17T18:38:05.440Z,12.11
2022-10-17T18:40:34.158Z,12.08
2022-10-17T18:43:02.786Z,12.03
2022-10-17T18:45:31.467Z,12.00
2022-10-17T18:48:00.088Z,11.97
2022-10-17T18:50:28.606Z,11.93
2022-10-17T18:52:57.545Z,11.89
2022-10-17T18:55:26.328Z,11.85
2022-10-17T18:57:54.950Z,11.81
2022-10-17T19:00:23.808Z,11.78
2022-10-17T19:02:52.650Z,11.74
2022-10-17T19:05:21.301Z,11.70
2022-10-17T19:07:49.864Z,11.66
2022-10-17T19:10:18.546Z,11.63
2022-10-17T19:12:47.249Z,11.59
2022-10-17T19:15:16.223Z,11.57
2022-10-17T19:17:44.924Z,11.54
2022-10-17T19:20:13.657Z,11.51
2022-10-17T19:22:42.288Z,11.49
2022-10-17T19:25:11.387Z,11.49
2022-10-17T19:27:39.928Z,11.49
2022-10-17T19:30:12.117Z,11.49
2022-10-17T19:32:40.810Z,11.49
2022-10-17T19:35:11.369Z,11.49
2022-10-17T19:37:39.923Z,11.48
2022-10-17T19:40:11.242Z,11.47
2022-10-17T19:42:39.914Z,11.46
2022-10-17T19:45:10.598Z,11.45
2022-10-17T19:47:39.495Z,11.44
2022-10-17T19:50:11.594Z,11.43
2022-10-17T19:52:40.360Z,11.42
2022-10-17T19:55:09.637Z,11.40
2022-10-17T19:57:38.346Z,11.39
2022-10-17T20:00:08.924Z,11.37
2022-10-17T20:02:39.994Z,11.35
2022-10-17T20:05:21.605Z,11.34
2022-10-17T20:07:52.410Z,11.32
2022-10-17T20:10:21.471Z,11.31
2022-10-17T20:12:50.313Z,11.30
2022-10-17T20:15:19.247Z,11.30
2022-10-17T20:17:48.322Z,11.29
2022-10-17T20:20:17.652Z,11.29
2022-10-17T20:22:46.418Z,11.27
2022-10-17T20:25:15.047Z,11.26
2022-10-17T20:27:43.651Z,11.25
2022-10-17T20:30:12.810Z,11.25
2022-10-17T20:32:41.461Z,11.23
2022-10-17T20:35:10.516Z,11.21
2022-10-17T20:37:42.382Z,11.18
2022-10-17T20:43:01.228Z,11.11
2022-10-17T20:45:43.883Z,11.07
2022-10-17T20:48:19.226Z,11.05
2022-10-17T20:50:48.797Z,11.02
2022-10-17T20:53:36.001Z,11.00
2022-10-17T20:56:07.453Z,10.98
2022-10-17T20:58:36.340Z,10.94
2022-10-17T21:01:09.447Z,10.89
2022-10-17T21:03:42.347Z,10.84
2022-10-17T21:06:15.299Z,10.79
2022-10-17T21:08:44.431Z,10.74
2022-10-17T21:11:15.240Z,10.68
2022-10-17T21:13:44.185Z,10.63
2022-10-17T21:16:15.021Z,10.58
2022-10-17T21:18:44.377Z,10.54
2022-10-17T21:21:15.412Z,10.51
2022-10-17T21:23:45.432Z,10.49
2022-10-17T21:26:14.937Z,10.48
2022-10-17T21:28:45.095Z,10.46
2022-10-17T21:31:16.162Z,10.44
2022-10-17T21:33:46.660Z,10.42
2022-10-17T21:36:16.263Z,10.40
2022-10-17T21:38:46.300Z,10.37
2022-10-17T21:41:18.888Z,10.35
2022-10-17T21:43:47.820Z,10.33
2022-10-17T21:46:18.475Z,10.31
2022-10-17T21:48:48.116Z,10.27
2022-10-17T21:51:19.772Z,10.23
2022-10-17T21:53:48.858Z,10.20
2022-10-17T21:56:20.231Z,10.16
2022-10-17T21:58:50.054Z,10.13
2022-10-17T22:01:20.708Z,10.11
2022-10-17T22:03:50.790Z,10.10
2022-10-17T22:09:13.826Z,10.04
2022-10-17T22:11:44.762Z,10.00
2022-10-17T22:14:15.913Z,9.97
2022-10-17T22:16:45.783Z,9.92
2022-10-17T22:19:16.582Z,9.89
2022-10-17T22:21:45.855Z,9.86
2022-10-17T22:24:16.747Z,9.83
2022-10-17T22:26:46.843Z,9.80
2022-10-17T22:29:15.941Z,9.77
2022-10-17T22:31:44.745Z,9.74
2022-10-17T22:34:15.199Z,9.71
2022-10-17T22:36:43.235Z,9.67
2022-10-17T22:39:18.851Z,9.65
2022-10-17T22:41:48.197Z,9.63
2022-10-17T22:47:54.362Z,9.57
2022-10-17T22:50:23.973Z,9.55
2022-10-17T22:52:52.502Z,9.52
2022-10-17T22:55:21.097Z,9.48
2022-10-17T22:57:49.787Z,9.45
2022-10-17T23:00:18.720Z,9.42
2022-10-17T23:02:47.367Z,9.38
2022-10-17T23:05:15.999Z,9.35
2022-10-17T23:07:44.748Z,9.32
2022-10-17T23:10:15.571Z,9.26
2022-10-17T23:12:48.004Z,9.21
2022-10-17T23:15:17.778Z,9.18
2022-10-17T23:17:46.566Z,9.15
2022-10-17T23:20:15.827Z,9.11
2022-10-17T23:22:46.945Z,9.08
2022-10-17T23:25:17.051Z,9.06
2022-10-17T23:27:45.801Z,9.03
2022-10-17T23:30:14.741Z,9.01
2022-10-17T23:32:43.503Z,8.98
2022-10-17T23:35:13.591Z,8.95
2022-10-17T23:37:43.138Z,8.92
2022-10-17T23:40:14.233Z,8.89
2022-10-17T23:42:43.083Z,8.87
2022-10-17T23:45:13.174Z,8.84
2022-10-17T23:47:42.351Z,8.81
2022-10-17T23:50:11.278Z,8.78
2022-10-17T23:52:39.976Z,8.75
2022-10-17T23:55:10.688Z,8.72
2022-10-17T23:57:39.387Z,8.68
